Time;durP1;ratioP1;P1;durP2;ratioP2;P2;SDS_P1;SDS_P2;PMS_P1;PMS_P2;Temp;Humidity;BMP_temperature;BMP_pressure;BME280_temperature;BME280_humidity;BME280_pressure;Samples;Min_cycle;Max_cycle;Signal;HPM_P1;HPM_P2
2022/07/09 00:01:42;;;;;;;4.20;3.80;;;19.60;66.70;;;;;;5063696;28;20958;-45
2022/07/09 00:04:09;;;;;;;3.73;2.87;;;19.60;67.10;;;;;;5056968;28;20501;-44
2022/07/09 00:06:36;;;;;;;3.83;3.53;;;19.50;67.20;;;;;;5062263;28;20455;-45
2022/07/09 00:09:03;;;;;;;5.67;3.53;;;19.50;67.30;;;;;;5061807;28;20469;-45
2022/07/09 00:11:30;;;;;;;5.27;3.37;;;19.50;67.50;;;;;;5044965;28;20450;-45
2022/07/09 00:13:57;;;;;;;6.50;4.00;;;19.40;67.60;;;;;;5060429;28;20960;-45
2022/07/09 00:16:23;;;;;;;3.23;2.80;;;19.40;67.70;;;;;;5041315;28;21015;-45
2022/07/09 00:18:50;;;;;;;4.30;3.70;;;19.40;67.70;;;;;;5061001;28;20830;-46
2022/07/09 00:21:17;;;;;;;6.07;4.23;;;19.40;67.80;;;;;;5060666;28;20457;-45
2022/07/09 00:23:44;;;;;;;4.67;4.17;;;19.40;67.80;;;;;;5062301;28;20449;-45
2022/07/09 00:26:10;;;;;;;5.30;3.70;;;19.40;67.90;;;;;;5058272;28;20501;-45
2022/07/09 00:28:37;;;;;;;4.40;4.10;;;19.30;68.10;;;;;;5062162;28;20974;-45
2022/07/09 00:31:04;;;;;;;6.87;4.10;;;19.30;68.20;;;;;;5046295;28;20453;-45
2022/07/09 00:33:31;;;;;;;5.10;3.30;;;19.20;68.40;;;;;;5062694;28;20453;-45
2022/07/09 00:35:58;;;;;;;5.33;3.97;;;19.30;68.10;;;;;;5055622;28;20942;-45
2022/07/09 00:38:25;;;;;;;4.67;3.80;;;19.30;67.90;;;;;;5060464;28;20954;-45
2022/07/09 00:40:52;;;;;;;4.57;3.83;;;19.20;68.10;;;;;;5058774;28;21057;-45
2022/07/09 00:43:20;;;;;;;7.40;4.00;;;19.20;68.40;;;;;;5041783;28;20958;-45
2022/07/09 00:45:48;;;;;;;4.97;3.90;;;19.20;68.50;;;;;;5044384;28;20491;-45
2022/07/09 00:48:15;;;;;;;4.97;4.13;;;19.20;68.50;;;;;;5038213;28;20464;-45
2022/07/09 00:50:43;;;;;;;4.57;4.03;;;19.10;68.70;;;;;;5057628;28;21027;-45
2022/07/09 00:53:13;;;;;;;6.33;4.33;;;19.00;68.80;;;;;;5044533;28;20466;-45
2022/07/09 00:55:40;;;;;;;5.63;4.40;;;19.10;68.90;;;;;;5057467;28;21074;-45
2022/07/09 00:58:09;;;;;;;5.10;4.10;;;19.10;68.90;;;;;;5058058;28;20541;-45
2022/07/09 01:00:36;;;;;;;5.40;4.40;;;19.10;68.80;;;;;;5059626;28;20607;-45
2022/07/09 01:03:03;;;;;;;6.30;5.00;;;19.00;68.80;;;;;;5058251;28;20458;-45
2022/07/09 01:05:36;;;;;;;5.00;4.47;;;19.00;69.00;;;;;;5056951;28;20990;-45
2022/07/09 01:08:05;;;;;;;7.10;4.73;;;19.00;69.20;;;;;;5056588;28;20465;-46
2022/07/09 01:10:33;;;;;;;7.00;4.50;;;19.00;69.30;;;;;;5047281;28;20468;-45
2022/07/09 01:13:02;;;;;;;4.77;4.30;;;19.00;69.40;;;;;;5046757;28;20464;-45
2022/07/09 01:15:29;;;;;;;9.23;4.10;;;18.90;69.60;;;;;;5056869;28;20464;-45
2022/07/09 01:17:57;;;;;;;7.43;4.67;;;18.90;69.80;;;;;;5060271;28;20897;-45
2022/07/09 01:20:31;;;;;;;4.63;4.23;;;18.90;69.90;;;;;;5059246;28;21017;-45
2022/07/09 01:22:59;;;;;;;6.30;4.03;;;18.80;69.90;;;;;;5030221;28;20469;-45
2022/07/09 01:25:36;;;;;;;5.27;4.77;;;18.90;70.10;;;;;;5040405;28;20829;-45
2022/07/09 01:28:05;;;;;;;7.70;4.20;;;18.80;70.20;;;;;;5057351;28;21026;-45
2022/07/09 01:30:34;;;;;;;4.73;4.33;;;18.90;70.30;;;;;;5056861;28;20519;-45
2022/07/09 01:33:00;;;;;;;5.77;4.30;;;18.80;70.40;;;;;;5046493;28;20458;-45
2022/07/09 01:35:27;;;;;;;5.00;4.60;;;18.80;70.50;;;;;;5061483;28;20468;-45
2022/07/09 01:37:54;;;;;;;6.43;4.30;;;18.80;70.70;;;;;;5060639;28;20931;-45
2022/07/09 01:40:23;;;;;;;5.20;4.70;;;18.80;70.70;;;;;;5044804;28;20462;-45
2022/07/09 01:42:50;;;;;;;5.80;4.30;;;18.70;70.80;;;;;;5031230;28;20459;-45
2022/07/09 01:45:17;;;;;;;5.97;4.40;;;18.70;70.80;;;;;;5040520;28;21256;-46
2022/07/09 01:47:44;;;;;;;5.97;4.77;;;18.70;70.90;;;;;;5049787;28;20462;-46
2022/07/09 01:50:11;;;;;;;5.27;4.87;;;18.70;71.00;;;;;;5060012;28;20461;-45
2022/07/09 01:52:38;;;;;;;6.23;5.00;;;18.80;70.70;;;;;;5041054;28;20458;-45
2022/07/09 01:55:05;;;;;;;5.93;4.80;;;18.80;70.40;;;;;;5054713;28;20462;-45
2022/07/09 01:57:32;;;;;;;6.50;5.20;;;18.80;69.90;;;;;;5059059;28;20833;-46
2022/07/09 01:59:59;;;;;;;5.07;4.67;;;18.80;69.60;;;;;;5056652;28;20481;-46
2022/07/09 02:02:25;;;;;;;4.93;4.53;;;18.80;69.60;;;;;;5060317;28;20458;-45
2022/07/09 02:04:52;;;;;;;6.63;4.93;;;18.70;69.80;;;;;;5060464;28;20490;-45
2022/07/09 02:07:19;;;;;;;5.10;4.60;;;18.60;70.20;;;;;;5061103;28;20536;-45
2022/07/09 02:09:46;;;;;;;4.17;3.87;;;18.60;70.30;;;;;;5058263;28;20464;-45
2022/07/09 02:12:12;;;;;;;5.10;4.70;;;18.60;70.30;;;;;;5042801;28;20955;-45
2022/07/09 02:14:39;;;;;;;5.17;4.43;;;18.60;70.50;;;;;;5056922;28;20463;-45
2022/07/09 02:17:06;;;;;;;4.53;4.13;;;18.60;70.60;;;;;;5033062;28;20472;-46
2022/07/09 02:19:33;;;;;;;5.37;4.87;;;18.50;70.70;;;;;;5061458;28;20477;-45
2022/07/09 02:21:59;;;;;;;5.67;5.17;;;18.50;70.90;;;;;;5057358;28;20465;-46
2022/07/09 02:24:28;;;;;;;6.03;5.20;;;18.50;71.10;;;;;;5060785;28;21014;-45
2022/07/09 02:26:54;;;;;;;5.27;4.50;;;18.40;71.30;;;;;;5040843;28;20470;-45
2022/07/09 02:29:21;;;;;;;5.70;4.60;;;18.40;71.50;;;;;;5058449;28;20825;-46
2022/07/09 02:31:48;;;;;;;6.00;4.80;;;18.40;71.60;;;;;;5046650;28;20454;-47
2022/07/09 02:34:15;;;;;;;5.33;4.83;;;18.40;71.90;;;;;;5057908;28;20466;-48
2022/07/09 02:36:42;;;;;;;6.50;4.83;;;18.40;71.90;;;;;;5057138;28;20462;-48
2022/07/09 02:39:08;;;;;;;5.60;4.80;;;18.40;72.10;;;;;;5058467;28;20472;-48
2022/07/09 02:41:35;;;;;;;7.50;6.07;;;18.40;72.30;;;;;;5057789;28;20458;-48
2022/07/09 02:44:02;;;;;;;5.63;4.53;;;18.40;72.30;;;;;;5057975;28;20477;-48
2022/07/09 02:46:29;;;;;;;9.90;4.60;;;18.40;72.40;;;;;;5057603;28;21039;-48
2022/07/09 02:48:56;;;;;;;5.30;4.30;;;18.30;72.30;;;;;;5055555;28;20454;-48
2022/07/09 02:51:22;;;;;;;5.30;4.90;;;18.30;72.30;;;;;;5058841;28;20838;-48
2022/07/09 02:53:49;;;;;;;5.30;4.80;;;18.30;72.30;;;;;;5058115;28;20454;-48
2022/07/09 02:56:16;;;;;;;4.80;4.40;;;18.30;72.30;;;;;;5058739;28;20915;-48
2022/07/09 02:58:43;;;;;;;4.80;4.40;;;18.20;72.30;;;;;;5041086;28;20462;-48
2022/07/09 03:01:10;;;;;;;4.90;4.50;;;18.20;72.30;;;;;;5042345;28;20482;-48
2022/07/09 03:03:37;;;;;;;4.90;4.40;;;18.20;72.40;;;;;;5042610;28;21035;-48
2022/07/09 03:06:05;;;;;;;6.43;4.53;;;18.20;72.60;;;;;;5059825;28;21100;-48
2022/07/09 03:08:35;;;;;;;4.87;4.43;;;18.20;72.60;;;;;;5045949;28;20473;-48
2022/07/09 03:11:06;;;;;;;6.53;4.80;;;18.20;72.60;;;;;;5055942;28;20462;-48
2022/07/09 03:13:33;;;;;;;5.87;4.40;;;18.20;72.50;;;;;;5057967;28;20456;-48
2022/07/09 03:16:01;;;;;;;4.93;4.50;;;18.20;72.50;;;;;;5043928;28;20460;-48
2022/07/09 03:18:27;;;;;;;5.30;4.77;;;18.10;72.60;;;;;;5061349;28;20469;-48
2022/07/09 03:20:55;;;;;;;5.43;4.83;;;18.10;72.60;;;;;;5057346;28;20519;-48
2022/07/09 03:23:22;;;;;;;5.73;4.83;;;18.20;72.50;;;;;;5044089;28;20465;-48
2022/07/09 03:25:51;;;;;;;5.10;4.70;;;18.10;72.40;;;;;;5058460;28;20477;-48
2022/07/09 03:28:18;;;;;;;5.50;5.10;;;18.10;72.50;;;;;;5057095;28;20454;-48
2022/07/09 03:30:45;;;;;;;5.50;4.90;;;18.10;72.50;;;;;;5041841;28;20461;-48
2022/07/09 03:33:11;;;;;;;5.90;5.00;;;18.10;72.60;;;;;;5062896;28;20821;-48
2022/07/09 03:35:39;;;;;;;5.00;4.60;;;18.10;72.50;;;;;;5044697;28;20453;-48
2022/07/09 03:38:06;;;;;;;5.20;4.60;;;18.00;72.60;;;;;;5040214;28;20453;-48
2022/07/09 03:40:33;;;;;;;4.73;4.30;;;18.00;72.80;;;;;;5047418;28;20458;-48
2022/07/09 03:43:00;;;;;;;5.40;4.97;;;18.00;72.90;;;;;;5053475;28;20466;-48
2022/07/09 03:45:27;;;;;;;5.30;4.87;;;18.00;72.90;;;;;;5045826;28;20512;-48
2022/07/09 03:47:54;;;;;;;5.17;4.77;;;18.00;73.10;;;;;;5043126;28;20545;-48
2022/07/09 03:50:20;;;;;;;5.40;4.90;;;18.00;73.10;;;;;;5048278;28;21045;-48
2022/07/09 03:52:50;;;;;;;6.97;4.50;;;18.00;73.20;;;;;;5058793;28;20457;-48
2022/07/09 03:55:17;;;;;;;5.30;4.80;;;18.00;73.20;;;;;;5060911;28;20472;-48
2022/07/09 03:57:44;;;;;;;5.83;5.33;;;17.90;73.20;;;;;;5056094;28;20455;-48
2022/07/09 04:00:11;;;;;;;5.00;4.60;;;17.90;73.20;;;;;;5040892;28;21033;-48
2022/07/09 04:02:38;;;;;;;5.87;5.37;;;17.90;73.20;;;;;;5057368;28;20550;-48
2022/07/09 04:05:05;;;;;;;5.90;5.13;;;17.90;73.30;;;;;;5059524;28;20540;-47
2022/07/09 04:07:32;;;;;;;8.83;5.17;;;17.90;73.40;;;;;;5060062;28;20508;-48
2022/07/09 04:09:59;;;;;;;6.83;4.93;;;17.90;73.40;;;;;;5058019;28;20457;-49
2022/07/09 04:12:26;;;;;;;5.50;5.10;;;17.90;73.50;;;;;;5056049;28;20511;-48
2022/07/09 04:14:53;;;;;;;5.97;5.40;;;17.90;73.40;;;;;;5055696;28;20489;-48
2022/07/09 04:17:20;;;;;;;6.70;5.10;;;17.90;73.30;;;;;;5059323;28;20473;-48
2022/07/09 04:19:46;;;;;;;5.67;5.17;;;17.90;73.30;;;;;;5055877;28;20834;-48
2022/07/09 04:22:13;;;;;;;6.53;4.70;;;17.90;73.30;;;;;;5041427;28;20461;-48
2022/07/09 04:24:40;;;;;;;6.70;5.00;;;18.00;73.10;;;;;;5061334;28;20461;-49
2022/07/09 04:27:07;;;;;;;6.13;5.07;;;17.90;72.90;;;;;;5057480;28;20494;-49
2022/07/09 04:29:34;;;;;;;6.80;5.10;;;17.90;73.00;;;;;;5041453;28;22299;-48
2022/07/09 04:32:01;;;;;;;6.30;5.13;;;17.90;73.00;;;;;;5065275;28;20818;-48
2022/07/09 04:34:27;;;;;;;5.40;4.93;;;17.90;73.20;;;;;;5043017;28;20462;-46
2022/07/09 04:36:54;;;;;;;8.60;5.33;;;17.90;73.20;;;;;;5063091;28;20462;-47
2022/07/09 04:39:24;;;;;;;5.57;5.07;;;17.90;73.30;;;;;;5048535;28;20457;-48
2022/07/09 04:41:51;;;;;;;7.60;5.90;;;18.00;73.40;;;;;;5064885;28;20982;-46
2022/07/09 04:44:18;;;;;;;4.90;4.50;;;18.00;73.50;;;;;;5063280;28;20459;-46
2022/07/09 04:46:45;;;;;;;5.60;5.10;;;18.00;73.40;;;;;;5066586;28;20492;-46
2022/07/09 04:49:12;;;;;;;5.77;5.17;;;18.10;73.40;;;;;;5064143;28;20475;-46
2022/07/09 04:51:38;;;;;;;5.20;4.70;;;18.10;73.40;;;;;;5067390;28;20552;-46
2022/07/09 04:54:05;;;;;;;5.80;4.90;;;18.20;73.40;;;;;;5048028;28;20461;-47
2022/07/09 04:56:32;;;;;;;5.73;5.03;;;18.30;73.20;;;;;;5063412;28;20449;-47
2022/07/09 04:59:02;;;;;;;4.87;4.43;;;18.30;73.00;;;;;;5067557;28;20462;-46
2022/07/09 05:01:29;;;;;;;5.43;4.87;;;18.40;73.10;;;;;;5065948;28;20482;-47
2022/07/09 05:03:56;;;;;;;5.87;5.30;;;18.40;73.00;;;;;;5067258;28;20457;-46
2022/07/09 05:06:23;;;;;;;8.40;4.67;;;18.40;72.70;;;;;;5067939;28;20489;-46
2022/07/09 05:08:50;;;;;;;4.70;4.30;;;18.50;72.40;;;;;;5069078;28;20854;-47
2022/07/09 05:11:17;;;;;;;8.93;5.43;;;18.60;72.20;;;;;;5036291;28;20553;-46
2022/07/09 05:13:46;;;;;;;6.03;4.90;;;18.60;72.40;;;;;;5063636;28;20519;-46
2022/07/09 05:16:13;;;;;;;4.40;4.00;;;18.60;72.40;;;;;;5064875;28;20560;-48
2022/07/09 05:18:40;;;;;;;4.27;3.87;;;18.60;72.20;;;;;;5061686;28;20468;-46
2022/07/09 05:21:07;;;;;;;5.50;4.57;;;18.60;72.10;;;;;;5053147;28;20833;-46
2022/07/09 05:23:34;;;;;;;6.10;4.17;;;18.60;72.40;;;;;;5061158;28;20646;-46
2022/07/09 05:26:01;;;;;;;5.23;4.73;;;18.60;72.60;;;;;;5062908;28;20495;-46
2022/07/09 05:28:28;;;;;;;5.10;4.60;;;18.70;72.50;;;;;;5064803;28;20454;-46
2022/07/09 05:30:54;;;;;;;6.70;4.60;;;18.70;72.40;;;;;;5062103;28;20473;-46
2022/07/09 05:33:41;;;;;;;5.23;4.33;;;18.70;72.40;;;;;;5050056;28;20504;-46
2022/07/09 05:36:08;;;;;;;6.07;5.20;;;18.70;72.50;;;;;;5049854;28;20473;-46
2022/07/09 05:38:35;;;;;;;5.30;4.70;;;18.70;72.60;;;;;;5062494;28;20967;-46
2022/07/09 05:41:02;;;;;;;5.00;4.50;;;18.80;72.50;;;;;;5064300;28;20501;-46
2022/07/09 05:43:29;;;;;;;4.63;4.20;;;18.90;72.40;;;;;;5047451;28;21005;-46
2022/07/09 05:45:56;;;;;;;4.80;4.40;;;18.90;72.40;;;;;;5063906;28;21048;-46
2022/07/09 05:48:23;;;;;;;4.93;4.53;;;18.90;72.40;;;;;;5046638;28;20464;-46
2022/07/09 05:50:50;;;;;;;7.80;4.70;;;19.00;72.10;;;;;;5059691;28;20532;-46
2022/07/09 05:53:16;;;;;;;4.40;4.00;;;19.00;71.80;;;;;;5060910;28;20462;-45
2022/07/09 05:55:44;;;;;;;4.80;4.40;;;19.00;72.10;;;;;;5053529;28;20449;-46
2022/07/09 05:58:11;;;;;;;4.23;3.90;;;19.10;72.10;;;;;;5062032;28;20979;-46
2022/07/09 06:00:38;;;;;;;4.30;3.97;;;19.10;72.20;;;;;;5043052;28;20483;-46
2022/07/09 06:03:05;;;;;;;4.70;4.30;;;19.20;72.20;;;;;;5059909;28;20463;-46
2022/07/09 06:05:31;;;;;;;4.53;4.13;;;19.20;72.10;;;;;;5058899;28;20466;-46
2022/07/09 06:07:58;;;;;;;7.33;3.90;;;19.30;71.90;;;;;;5047473;28;20943;-46
2022/07/09 06:10:26;;;;;;;4.00;3.70;;;19.40;71.60;;;;;;5049245;28;21088;-46
2022/07/09 06:12:53;;;;;;;4.10;3.67;;;19.40;71.40;;;;;;5032435;28;20910;-46
2022/07/09 06:15:20;;;;;;;7.23;4.00;;;19.40;71.50;;;;;;5060687;28;20458;-46
2022/07/09 06:17:46;;;;;;;5.23;4.83;;;19.50;71.10;;;;;;5059224;28;20557;-46
2022/07/09 06:20:14;;;;;;;6.43;3.80;;;19.60;71.00;;;;;;5066562;28;20488;-46
2022/07/09 06:22:41;;;;;;;6.77;4.17;;;19.60;71.10;;;;;;5049853;28;20556;-46
2022/07/09 06:25:09;;;;;;;4.20;3.80;;;19.70;70.70;;;;;;5063630;28;20512;-46
2022/07/09 06:27:36;;;;;;;4.40;4.00;;;19.70;70.60;;;;;;5062968;28;20495;-46
2022/07/09 06:30:03;;;;;;;6.47;4.10;;;19.70;70.80;;;;;;5056611;28;20462;-46
2022/07/09 06:32:30;;;;;;;5.57;4.10;;;19.80;70.80;;;;;;5069966;28;20450;-46
2022/07/09 06:34:57;;;;;;;6.80;4.40;;;19.90;70.10;;;;;;5062117;28;20553;-46
2022/07/09 06:37:24;;;;;;;4.80;4.40;;;20.00;70.00;;;;;;5046333;28;20466;-46
2022/07/09 06:39:55;;;;;;;4.40;4.00;;;20.00;70.00;;;;;;5062138;28;20457;-46
2022/07/09 06:42:22;;;;;;;4.13;3.73;;;20.10;69.70;;;;;;5063514;28;20471;-46
2022/07/09 06:44:49;;;;;;;6.43;5.00;;;20.20;69.30;;;;;;5054111;28;20837;-46
2022/07/09 06:47:16;;;;;;;7.20;4.60;;;20.30;69.30;;;;;;5059440;28;20489;-46
2022/07/09 06:49:43;;;;;;;4.07;3.73;;;20.30;69.20;;;;;;5048085;28;20450;-46
2022/07/09 06:52:10;;;;;;;4.00;3.63;;;20.40;68.70;;;;;;5065086;28;20533;-46
2022/07/09 06:54:36;;;;;;;3.83;3.53;;;20.60;68.60;;;;;;5052820;28;20452;-46
2022/07/09 06:57:04;;;;;;;4.70;4.30;;;20.70;68.50;;;;;;5058595;28;20660;-47
2022/07/09 06:59:33;;;;;;;4.17;3.77;;;20.80;68.40;;;;;;5064764;28;20478;-47
2022/07/09 07:02:00;;;;;;;5.93;3.50;;;20.90;68.30;;;;;;5066462;28;20970;-46
2022/07/09 07:04:26;;;;;;;4.80;3.47;;;21.00;68.00;;;;;;5063842;28;20457;-47
2022/07/09 07:06:53;;;;;;;4.60;3.53;;;21.20;67.40;;;;;;5052873;28;20854;-47
2022/07/09 07:09:23;;;;;;;6.80;3.43;;;21.30;66.90;;;;;;5065290;28;20445;-46
2022/07/09 07:11:50;;;;;;;8.33;3.50;;;21.40;66.90;;;;;;5065192;28;20453;-46
2022/07/09 07:14:17;;;;;;;4.17;3.77;;;21.60;66.20;;;;;;5045200;28;20832;-47
2022/07/09 07:16:45;;;;;;;7.00;5.13;;;21.70;65.70;;;;;;5059738;28;20489;-47
2022/07/09 07:19:12;;;;;;;4.20;3.80;;;21.80;65.30;;;;;;5051852;28;20457;-47
2022/07/09 07:21:39;;;;;;;6.67;4.40;;;22.00;64.80;;;;;;5062195;28;20512;-47
2022/07/09 07:24:06;;;;;;;5.57;4.30;;;22.10;64.40;;;;;;5060324;28;20468;-47
2022/07/09 07:26:34;;;;;;;6.13;3.93;;;22.20;63.90;;;;;;5045722;28;20986;-47
2022/07/09 07:29:01;;;;;;;5.53;4.03;;;22.40;63.50;;;;;;5062706;28;20507;-46
2022/07/09 07:31:28;;;;;;;9.10;5.60;;;22.60;63.40;;;;;;5046187;28;20449;-47
2022/07/09 07:33:55;;;;;;;7.97;6.70;;;22.80;62.40;;;;;;5059269;28;20849;-46
2022/07/09 07:36:22;;;;;;;7.73;5.00;;;22.90;61.80;;;;;;5056904;28;20450;-46
2022/07/09 07:38:51;;;;;;;4.93;4.03;;;23.00;60.60;;;;;;5055488;28;20461;-46
2022/07/09 07:41:18;;;;;;;6.10;3.67;;;23.00;60.70;;;;;;5055537;28;20467;-46
2022/07/09 07:43:45;;;;;;;6.23;4.20;;;23.00;60.80;;;;;;5057779;28;20466;-46
2022/07/09 07:46:12;;;;;;;6.00;4.20;;;23.00;61.00;;;;;;5056484;28;20504;-46
2022/07/09 07:48:41;;;;;;;8.27;4.13;;;22.90;61.20;;;;;;5057522;28;20518;-46
2022/07/09 07:51:08;;;;;;;4.03;3.73;;;22.90;61.40;;;;;;5058446;28;20476;-46
2022/07/09 07:53:35;;;;;;;4.53;3.50;;;22.90;61.30;;;;;;5063487;28;20457;-46
2022/07/09 07:56:04;;;;;;;6.63;3.53;;;22.90;61.20;;;;;;5044945;28;20500;-46
2022/07/09 07:58:31;;;;;;;4.40;3.63;;;23.10;61.00;;;;;;5062762;28;20517;-46
2022/07/09 08:00:58;;;;;;;6.00;4.07;;;23.20;60.30;;;;;;5057887;28;20484;-46
2022/07/09 08:03:25;;;;;;;4.23;3.57;;;23.30;59.30;;;;;;5028832;28;20463;-46
2022/07/09 08:05:57;;;;;;;11.73;3.70;;;23.40;59.30;;;;;;5061414;28;20468;-46
2022/07/09 08:08:24;;;;;;;10.37;3.97;;;23.50;58.60;;;;;;5064087;28;20458;-46
2022/07/09 08:10:51;;;;;;;3.63;3.07;;;23.70;58.60;;;;;;5065217;28;21166;-46
2022/07/09 08:13:18;;;;;;;4.20;3.10;;;24.00;57.50;;;;;;5063275;28;20568;-46
2022/07/09 08:15:45;;;;;;;6.60;4.53;;;24.20;57.10;;;;;;5047652;28;20454;-46
2022/07/09 08:18:13;;;;;;;7.30;3.53;;;24.30;56.40;;;;;;5049534;28;20536;-46
2022/07/09 08:20:41;;;;;;;4.00;3.00;;;24.50;56.60;;;;;;5061382;28;20561;-47
2022/07/09 08:23:08;;;;;;;5.63;2.90;;;24.60;55.80;;;;;;5066389;28;20851;-46
2022/07/09 08:25:35;;;;;;;4.17;3.10;;;24.80;55.60;;;;;;5063329;28;20471;-47
2022/07/09 08:28:02;;;;;;;3.73;3.30;;;24.90;54.50;;;;;;5062325;28;20697;-46
2022/07/09 08:30:29;;;;;;;3.60;3.20;;;24.90;54.40;;;;;;5046404;28;20453;-47
2022/07/09 08:32:56;;;;;;;3.40;2.63;;;24.90;53.90;;;;;;5042587;28;20475;-47
2022/07/09 08:35:25;;;;;;;4.53;3.67;;;25.00;53.70;;;;;;5054902;28;20464;-46
2022/07/09 08:37:52;;;;;;;3.30;2.90;;;25.00;53.80;;;;;;5050005;28;20460;-47
2022/07/09 08:40:20;;;;;;;4.60;3.30;;;25.10;53.90;;;;;;5058277;28;20469;-47
2022/07/09 08:42:48;;;;;;;4.43;2.90;;;25.30;53.20;;;;;;5053770;28;20504;-47
2022/07/09 08:45:18;;;;;;;3.93;2.97;;;25.40;53.00;;;;;;5030072;28;20448;-47
2022/07/09 08:47:45;;;;;;;5.43;2.87;;;25.50;51.90;;;;;;5047280;28;21051;-46
2022/07/09 08:50:13;;;;;;;7.03;2.93;;;25.70;50.40;;;;;;5049308;28;20522;-46
2022/07/09 08:52:41;;;;;;;3.80;3.10;;;25.70;49.30;;;;;;5047269;28;20459;-46
2022/07/09 08:55:09;;;;;;;3.43;3.00;;;25.70;49.80;;;;;;5055599;28;20544;-47
2022/07/09 08:57:36;;;;;;;4.57;2.93;;;25.70;49.90;;;;;;5046988;28;20483;-46
2022/07/09 09:00:06;;;;;;;7.10;3.00;;;25.50;50.30;;;;;;5044337;28;20512;-47
2022/07/09 09:02:35;;;;;;;4.53;2.63;;;25.30;51.10;;;;;;5036161;28;20475;-46
2022/07/09 09:05:15;;;;;;;4.30;3.57;;;25.30;51.80;;;;;;5051918;28;20465;-47
2022/07/09 09:07:43;;;;;;;7.80;3.60;;;25.30;51.80;;;;;;5055637;28;20585;-46
2022/07/09 09:10:24;;;;;;;5.17;3.63;;;25.20;51.90;;;;;;5043767;28;21023;-46
2022/07/09 09:13:01;;;;;;;3.67;2.60;;;25.00;52.60;;;;;;5060540;28;20822;-46
2022/07/09 09:15:29;;;;;;;3.27;2.77;;;24.90;53.30;;;;;;5035935;28;20996;-46
2022/07/09 09:17:57;;;;;;;6.50;3.50;;;24.80;53.00;;;;;;5038767;28;20501;-46
2022/07/09 09:20:24;;;;;;;6.60;3.80;;;24.80;53.30;;;;;;5034915;28;20816;-46
2022/07/09 09:22:54;;;;;;;2.80;2.60;;;24.80;53.00;;;;;;5033176;28;21034;-46
2022/07/09 09:25:21;;;;;;;3.10;2.80;;;24.70;53.00;;;;;;5044268;28;20458;-46
2022/07/09 09:27:58;;;;;;;5.03;3.17;;;24.70;53.90;;;;;;5042514;28;20539;-46
2022/07/09 09:30:27;;;;;;;3.03;2.73;;;24.80;53.50;;;;;;5037919;28;21425;-46
2022/07/09 09:33:00;;;;;;;2.63;2.27;;;24.90;51.30;;;;;;5055478;28;20449;-46
2022/07/09 09:35:29;;;;;;;7.13;2.17;;;24.80;51.20;;;;;;5058851;28;20831;-46
2022/07/09 09:37:56;;;;;;;3.53;2.17;;;24.70;51.80;;;;;;5060459;28;20827;-46
2022/07/09 09:40:24;;;;;;;2.03;1.80;;;24.70;52.40;;;;;;5059150;28;20461;-45
2022/07/09 09:42:52;;;;;;;2.47;2.10;;;24.70;52.80;;;;;;5057535;28;21026;-46
2022/07/09 09:45:23;;;;;;;3.70;2.33;;;25.00;52.10;;;;;;5043622;28;20665;-46
2022/07/09 09:47:51;;;;;;;3.57;2.00;;;25.30;51.10;;;;;;5053642;28;20898;-46
2022/07/09 09:50:20;;;;;;;2.53;1.80;;;25.60;50.80;;;;;;5056788;28;20457;-45
2022/07/09 09:52:48;;;;;;;2.30;2.10;;;26.00;50.40;;;;;;5043653;28;20460;-45
2022/07/09 09:55:17;;;;;;;3.10;2.03;;;26.30;49.70;;;;;;5059096;28;20903;-46
2022/07/09 09:57:44;;;;;;;2.97;1.80;;;26.60;48.40;;;;;;5039300;28;21429;-46
2022/07/09 10:00:12;;;;;;;2.00;1.40;;;26.60;47.80;;;;;;5054369;28;20568;-46
2022/07/09 10:02:44;;;;;;;2.93;1.57;;;26.70;47.80;;;;;;5055265;28;20454;-46
2022/07/09 10:05:11;;;;;;;2.37;1.27;;;26.60;47.10;;;;;;5039623;28;20955;-46
2022/07/09 10:07:43;;;;;;;1.60;1.50;;;26.50;47.00;;;;;;5059351;28;20476;-45
2022/07/09 10:10:17;;;;;;;2.30;1.47;;;26.60;47.70;;;;;;5044202;28;20532;-45
2022/07/09 10:12:44;;;;;;;3.10;1.60;;;26.80;47.10;;;;;;5062629;28;20892;-46
2022/07/09 10:15:26;;;;;;;1.97;1.80;;;26.90;46.30;;;;;;5040304;28;20462;-46
2022/07/09 10:17:54;;;;;;;1.80;1.63;;;27.10;46.60;;;;;;5061686;28;20297;-46
2022/07/09 10:20:33;;;;;;;1.90;1.80;;;27.30;46.50;;;;;;5056218;28;21951;-45
2022/07/09 10:23:03;;;;;;;2.07;1.87;;;27.30;46.10;;;;;;5057899;28;20542;-46
2022/07/09 10:25:41;;;;;;;1.97;1.87;;;27.30;46.20;;;;;;5038636;28;20469;-46
2022/07/09 10:28:18;;;;;;;4.23;2.10;;;27.00;46.50;;;;;;5048718;28;20687;-46
2022/07/09 10:30:46;;;;;;;2.10;2.00;;;26.90;47.20;;;;;;5065282;28;20452;-46
2022/07/09 10:33:48;;;;;;;6.37;2.23;;;26.80;46.80;;;;;;5061686;28;21004;-47
2022/07/09 10:36:17;;;;;;;4.77;2.50;;;26.90;47.10;;;;;;5036507;28;20966;-46
2022/07/09 10:38:55;;;;;;;1.93;1.80;;;27.00;46.70;;;;;;5041006;28;20471;-46
2022/07/09 10:41:23;;;;;;;4.47;1.87;;;27.10;46.50;;;;;;5046838;28;20293;-46
2022/07/09 10:43:50;;;;;;;2.27;2.07;;;27.10;46.70;;;;;;5059320;28;20206;-47
2022/07/09 10:46:18;;;;;;;1.90;1.80;;;27.20;46.10;;;;;;5058024;28;20218;-46
2022/07/09 10:48:46;;;;;;;3.33;1.83;;;27.20;45.90;;;;;;5060539;28;20229;-46
2022/07/09 10:51:22;;;;;;;2.17;1.97;;;27.10;45.40;;;;;;5052260;28;20449;-46
2022/07/09 10:53:50;;;;;;;3.10;2.20;;;26.90;46.10;;;;;;5057727;28;20518;-46
2022/07/09 10:56:21;;;;;;;1.87;1.77;;;26.60;47.10;;;;;;5059074;28;20457;-46
2022/07/09 10:58:49;;;;;;;2.00;1.90;;;26.40;47.70;;;;;;5063799;28;20481;-46
2022/07/09 11:01:21;;;;;;;2.67;2.03;;;26.30;47.60;;;;;;5058267;28;20882;-46
2022/07/09 11:03:51;;;;;;;3.83;2.17;;;26.20;48.00;;;;;;5056182;28;20465;-46
2022/07/09 11:06:18;;;;;;;3.60;1.80;;;26.00;48.00;;;;;;5058423;28;20484;-47
2022/07/09 11:08:45;;;;;;;3.43;2.00;;;25.90;48.70;;;;;;5059690;28;20600;-47
2022/07/09 11:11:19;;;;;;;2.60;2.27;;;25.80;48.60;;;;;;5060073;28;20962;-47
2022/07/09 11:13:50;;;;;;;3.50;2.27;;;25.70;48.70;;;;;;5059156;28;20506;-47
2022/07/09 11:16:23;;;;;;;2.00;1.80;;;25.70;48.60;;;;;;5051587;28;20561;-47
2022/07/09 11:18:49;;;;;;;1.87;1.77;;;25.70;48.80;;;;;;5055833;28;20961;-47
2022/07/09 11:21:22;;;;;;;2.20;1.60;;;25.70;49.30;;;;;;5055168;28;20965;-47
2022/07/09 11:23:49;;;;;;;2.00;1.90;;;25.70;48.80;;;;;;5041650;28;20511;-47
2022/07/09 11:26:16;;;;;;;2.67;2.47;;;25.70;49.40;;;;;;5056318;28;20465;-47
2022/07/09 11:28:44;;;;;;;4.63;2.10;;;25.80;49.10;;;;;;5057868;28;20484;-47
2022/07/09 11:31:11;;;;;;;1.90;1.80;;;25.80;49.10;;;;;;5055260;28;20486;-47
2022/07/09 11:36:23;;;;;;;2.73;1.70;;;25.70;48.90;;;;;;5054759;28;20458;-47
2022/07/09 11:38:52;;;;;;;1.60;1.50;;;25.70;48.90;;;;;;5057295;28;20456;-47
2022/07/09 11:41:19;;;;;;;2.00;1.83;;;25.80;48.70;;;;;;5045024;28;20535;-47
2022/07/09 11:43:48;;;;;;;2.43;1.80;;;25.80;48.90;;;;;;5055732;28;20468;-47
2022/07/09 11:46:19;;;;;;;4.20;2.10;;;25.90;48.50;;;;;;5054837;28;20774;-47
2022/07/09 11:48:54;;;;;;;3.80;2.50;;;25.90;47.90;;;;;;5052504;28;21034;-47
2022/07/09 11:51:32;;;;;;;2.60;2.17;;;25.90;48.60;;;;;;5046603;28;20457;-47
2022/07/09 11:54:00;;;;;;;2.10;2.00;;;26.00;48.80;;;;;;5045357;28;20953;-47
2022/07/09 11:56:27;;;;;;;3.70;1.90;;;26.00;49.50;;;;;;5048106;28;20453;-47
2022/07/09 11:58:54;;;;;;;1.90;1.80;;;26.10;47.90;;;;;;5053573;28;20459;-47
2022/07/09 12:01:23;;;;;;;2.13;1.73;;;26.10;47.70;;;;;;5028501;28;20580;-47
2022/07/09 12:03:50;;;;;;;2.57;2.10;;;26.10;47.80;;;;;;5060229;28;20966;-47
2022/07/09 12:06:17;;;;;;;3.50;2.20;;;26.20;47.40;;;;;;5041445;28;20831;-47
2022/07/09 12:08:44;;;;;;;1.90;1.80;;;26.20;47.20;;;;;;5047653;28;20618;-47
2022/07/09 12:11:11;;;;;;;2.33;1.80;;;26.20;47.60;;;;;;5063232;28;20835;-47
2022/07/09 12:13:37;;;;;;;2.27;1.83;;;26.20;47.60;;;;;;5046745;28;21030;-46
2022/07/09 12:16:04;;;;;;;1.90;1.80;;;26.10;47.70;;;;;;5057091;28;20468;-46
2022/07/09 12:18:31;;;;;;;2.23;2.03;;;26.10;48.00;;;;;;5046316;28;20522;-46
2022/07/09 12:20:59;;;;;;;1.87;1.70;;;26.00;47.90;;;;;;5041301;28;20817;-46
2022/07/09 12:23:26;;;;;;;3.93;2.30;;;25.90;48.40;;;;;;5043947;28;20975;-46
2022/07/09 12:25:53;;;;;;;4.50;2.23;;;25.90;48.20;;;;;;5062932;28;20576;-46
2022/07/09 12:28:19;;;;;;;2.13;1.93;;;25.90;47.60;;;;;;5058300;28;20490;-46
2022/07/09 12:30:46;;;;;;;4.50;1.80;;;25.90;48.10;;;;;;5062391;28;20461;-46
2022/07/09 12:33:13;;;;;;;2.10;1.90;;;25.90;48.40;;;;;;5041427;28;20491;-47
2022/07/09 12:35:40;;;;;;;2.60;1.90;;;25.90;47.90;;;;;;5058245;28;20461;-47
2022/07/09 12:38:07;;;;;;;1.77;1.67;;;26.00;48.00;;;;;;5059899;28;20866;-46
2022/07/09 12:40:34;;;;;;;1.90;1.80;;;26.10;47.40;;;;;;5041742;28;20947;-47
2022/07/09 12:43:00;;;;;;;2.43;1.93;;;26.10;47.40;;;;;;5041520;28;20993;-47
2022/07/09 12:45:27;;;;;;;3.07;1.93;;;26.10;47.40;;;;;;5060662;28;20458;-46
2022/07/09 12:47:54;;;;;;;5.63;1.90;;;26.10;47.10;;;;;;5061968;28;20504;-46
2022/07/09 12:50:21;;;;;;;3.33;1.90;;;26.20;46.10;;;;;;5049121;28;20453;-46
2022/07/09 12:52:47;;;;;;;4.00;1.77;;;26.30;45.80;;;;;;5060678;28;20468;-47
2022/07/09 12:55:14;;;;;;;1.90;1.80;;;26.30;45.80;;;;;;5045522;28;20923;-46